Observations for Trim Patrick St
| Time | AQI | Temp °C | Hum % | Pres Pa | CO μg/m³ | H₂S μg/m³ | NO μg/m³ | NO₂ μg/m³ | O₃ μg/m³ | SO₂ μg/m³ | PM1 μg/m³ | PM2.5 μg/m³ | PM10 μg/m³ |
|---|---|---|---|---|---|---|---|---|---|---|---|---|---|
| Wednesday 26 August 2026 | |||||||||||||
| 20:47 | 3 | 19.8 | 69 | 37,959 | 0 | 16.24 | 0.8 | 36.81 | 65.1 | 1.22 | 11.43 | 18.26 | 20.09 |
| 20:45 | 3 | 19.9 | 68 | 37,570 | 0 | 19.29 | 0.75 | 48.28 | 94.39 | 0.55 | 12.29 | 19.02 | 20.92 |
| 20:43 | 3 | 20 | 68 | 36,877 | 0 | 18.16 | 0.88 | 41.02 | 75.95 | 1.68 | 13.14 | 19.76 | 21.74 |
| 20:42 | 3 | 20 | 68 | 36,350 | 0 | 17.61 | 0.92 | 36.34 | 73.25 | 1.17 | 13.14 | 19.8 | 21.78 |
| 20:40 | 3 | 20.2 | 67 | 35,647 | 0 | 19.13 | 0.84 | 49.2 | 74.27 | 1.52 | 11.43 | 18.4 | 20.23 |
| 20:39 | 3 | 20.2 | 67 | 34,710 | 0 | 18.66 | 0.88 | 52.45 | 63.89 | 1.19 | 13.14 | 21.37 | 23.5 |
| 20:38 | 3 | 20.2 | 66 | 33,459 | 0 | 18.47 | 0.86 | 45.96 | 74.63 | 1.06 | 13.14 | 19.21 | 21.14 |
| 20:37 | 3 | 20.3 | 66 | 31,792 | 0 | 18.19 | 0.76 | 38.69 | 78.94 | 1.1 | 12.29 | 17.79 | 19.57 |
| 20:36 | 3 | 20.4 | 66 | 29,569 | 0 | 20.32 | 0.56 | 49.82 | 85.04 | 1.46 | 11.43 | 19.28 | 21.2 |
| 20:35 | 3 | 20.4 | 66 | 26,606 | 0 | 20.66 | 0.65 | 49.11 | 80.71 | 0.58 | 12.29 | 18.53 | 20.38 |
| 20:34 | 3 | 20.5 | 66 | 22,654 | 0 | 21.69 | 0.65 | 58.45 | 86.89 | 1.48 | 11.43 | 18.54 | 20.39 |
| 20:33 | 3 | 20.5 | 67 | 17,383 | 0 | 21.53 | 0.69 | 70.76 | 58.59 | 2.81 | 11.43 | 17.02 | 18.72 |
| 20:32 | 3 | 20.6 | 67 | 10,355 | 0 | 22.08 | 0.76 | 67.1 | 41.36 | 3.47 | 10.57 | 16.29 | 17.92 |
| 20:31 | 3 | 20.7 | 66 | 975 | 0 | 22.72 | 0.75 | 66.3 | 53.56 | 3.55 | 11.43 | 17.07 | 18.77 |
| 20:30 | 3 | 20.7 | 66 | 105,180 | 0 | 24.32 | 0.82 | 61.89 | 50.61 | 4.16 | 12.29 | 17.78 | 19.56 |
| 20:29 | 3 | 20.8 | 66 | 97,073 | 0 | 23.11 | 0.85 | 77.46 | 58.9 | 3.27 | 12.29 | 17.83 | 19.61 |
| 20:28 | 3 | 20.8 | 66 | 90,381 | 0 | 20.48 | 0.68 | 49.31 | 65.64 | 3.78 | 9.71 | 17.84 | 19.62 |
| 20:27 | 3 | 20.9 | 65 | 86,726 | 0 | 20.32 | 0.69 | 38.05 | 75.87 | 3.97 | 9.71 | 15.67 | 17.24 |
| 20:26 | 3 | 21 | 65 | 84,141 | 0 | 22.17 | 0.71 | 53.92 | 81.63 | 4.02 | 11.43 | 17.87 | 19.65 |
| 20:25 | 3 | 21 | 65 | 82,378 | 0 | 21.93 | 0.8 | 53.92 | 59.37 | 4.94 | 9.71 | 17.17 | 18.89 |